createdAt,value
2022-12-13T08:05:26.768Z,0.39
2022-12-13T08:07:40.329Z,0.44
2022-12-13T08:10:06.704Z,0.25
2022-12-13T08:12:33.056Z,0.47
2022-12-13T08:14:59.387Z,0.44
2022-12-13T08:17:25.731Z,0.52
2022-12-13T08:19:52.089Z,0.60
2022-12-13T08:22:24.103Z,0.66
2022-12-13T08:24:44.778Z,0.71
2022-12-13T08:27:11.164Z,0.98
2022-12-13T08:29:37.517Z,1.31
2022-12-13T08:32:03.964Z,1.64
2022-12-13T08:34:30.312Z,1.39
2022-12-13T08:37:01.446Z,1.60
2022-12-13T08:39:22.970Z,1.80
2022-12-13T08:41:49.390Z,1.96
2022-12-13T08:44:15.723Z,2.31
2022-12-13T08:46:42.127Z,2.77
2022-12-13T08:49:08.494Z,3.35
2022-12-13T08:51:35.793Z,3.85
2022-12-13T08:54:10.392Z,4.27
2022-12-13T08:56:27.611Z,4.34
2022-12-13T08:58:53.972Z,4.54
2022-12-13T09:01:20.336Z,4.42
2022-12-13T09:03:46.633Z,4.14
2022-12-13T09:06:13.107Z,3.96
2022-12-13T09:08:39.476Z,4.24
2022-12-13T09:11:10.475Z,4.77
2022-12-13T09:13:33.027Z,5.04
2022-12-13T09:16:01.536Z,5.27
2022-12-13T09:18:26.957Z,5.09
2022-12-13T09:20:51.333Z,5.24
2022-12-13T09:23:23.627Z,5.13
2022-12-13T09:25:50.069Z,5.55
2022-12-13T09:28:10.397Z,5.48
2022-12-13T09:30:36.775Z,5.79
2022-12-13T09:33:25.289Z,5.38
2022-12-13T09:35:29.480Z,5.98
2022-12-13T09:37:55.858Z,5.34
2022-12-13T09:40:25.401Z,4.95
2022-12-13T09:42:48.590Z,5.02
2022-12-13T09:45:22.377Z,5.82
2022-12-13T09:47:46.879Z,6.42
2022-12-13T09:50:07.636Z,6.84
2022-12-13T09:52:33.912Z,6.47
2022-12-13T09:55:00.252Z,6.16
2022-12-13T09:57:31.253Z,5.48
2022-12-13T09:59:57.231Z,5.47
2022-12-13T10:02:19.342Z,5.30
2022-12-13T10:04:45.718Z,5.88
2022-12-13T10:07:12.036Z,5.96
2022-12-13T10:09:38.411Z,5.68
2022-12-13T10:12:04.813Z,5.59
2022-12-13T10:14:31.207Z,5.74
2022-12-13T10:16:57.556Z,6.06
2022-12-13T10:19:29.369Z,5.92
2022-12-13T10:21:50.283Z,6.12
2022-12-13T10:24:26.293Z,6.54
2022-12-13T10:26:42.968Z,6.56
2022-12-13T10:29:09.251Z,6.36
2022-12-13T10:31:35.647Z,6.67
2022-12-13T10:34:01.991Z,6.63
2022-12-13T10:36:28.298Z,6.42
2022-12-13T10:38:54.690Z,6.66
2022-12-13T10:41:21.042Z,6.81
2022-12-13T10:43:47.394Z,7.27
2022-12-13T10:46:13.801Z,7.23
2022-12-13T10:48:40.102Z,6.45
2022-12-13T10:51:06.455Z,5.34
2022-12-13T10:53:32.829Z,5.05
2022-12-13T10:56:02.459Z,4.92
2022-12-13T10:58:25.548Z,4.79
2022-12-13T11:00:51.942Z,5.35
2022-12-13T11:03:19.247Z,5.87
2022-12-13T11:05:45.634Z,6.28
2022-12-13T11:08:11.995Z,6.39
2022-12-13T11:10:38.303Z,6.71
2022-12-13T11:13:04.679Z,7.01
2022-12-13T11:15:31.049Z,7.07
2022-12-13T11:17:57.371Z,6.39
2022-12-13T11:20:23.734Z,6.88
2022-12-13T11:22:50.110Z,7.00
2022-12-13T11:25:16.429Z,6.74
2022-12-13T11:27:43.009Z,7.24
2022-12-13T11:30:09.282Z,7.32
2022-12-13T11:32:35.669Z,7.38
2022-12-13T11:35:04.500Z,7.16
2022-12-13T11:37:28.495Z,7.30
2022-12-13T11:40:01.881Z,7.56
2022-12-13T11:42:21.306Z,7.18
2022-12-13T11:44:48.220Z,7.36
2022-12-13T11:47:13.990Z,7.53
2022-12-13T11:49:40.299Z,7.39
2022-12-13T11:52:06.687Z,7.32
2022-12-13T11:54:33.162Z,7.07
2022-12-13T11:57:00.371Z,7.11
2022-12-13T11:59:27.158Z,7.35
2022-12-13T12:01:52.219Z,7.49
2022-12-13T12:04:18.542Z,7.29
2022-12-13T12:06:47.284Z,6.79
2022-12-13T12:09:11.287Z,6.99
2022-12-13T12:11:37.636Z,6.88
2022-12-13T12:14:03.988Z,6.99
2022-12-13T12:16:30.424Z,6.99
2022-12-13T12:19:01.304Z,6.98
2022-12-13T12:21:23.119Z,7.33
2022-12-13T12:23:52.630Z,7.34
2022-12-13T12:26:15.782Z,6.97
2022-12-13T12:28:44.126Z,7.16
2022-12-13T12:31:08.518Z,7.32
2022-12-13T12:33:34.818Z,7.35
2022-12-13T12:36:01.166Z,7.11
2022-12-13T12:38:28.121Z,7.06
2022-12-13T12:41:15.557Z,7.02
2022-12-13T12:43:20.212Z,6.57
2022-12-13T12:45:56.397Z,6.79
2022-12-13T12:50:43.139Z,6.16
2022-12-13T12:53:05.690Z,6.04
2022-12-13T12:55:32.076Z,5.91
2022-12-13T12:57:58.439Z,6.20
2022-12-13T13:00:24.947Z,6.76
2022-12-13T13:02:51.374Z,6.47
2022-12-13T13:05:17.621Z,6.59
2022-12-13T13:07:44.015Z,6.56
2022-12-13T13:10:16.247Z,6.60
2022-12-13T13:12:36.672Z,6.74
2022-12-13T13:15:03.054Z,6.55
2022-12-13T13:17:29.372Z,6.19
2022-12-13T13:20:05.404Z,6.14
2022-12-13T14:02:07.846Z,2.67
2022-12-13T14:04:34.139Z,2.83
2022-12-13T14:07:01.247Z,2.84
2022-12-13T14:09:26.840Z,3.04
2022-12-13T14:11:53.161Z,3.12
2022-12-13T14:14:21.803Z,2.94
2022-12-13T14:16:45.883Z,2.71
2022-12-13T14:19:12.284Z,2.60
2022-12-13T14:21:38.710Z,2.49
2022-12-13T14:24:05.054Z,2.53
2022-12-13T14:26:31.412Z,2.39
2022-12-13T14:28:57.793Z,2.13
2022-12-13T14:31:24.137Z,2.03
2022-12-13T14:33:50.440Z,2.04
2022-12-13T14:36:16.799Z,2.04
2022-12-13T14:38:43.170Z,1.94
2022-12-13T14:41:12.513Z,1.90
2022-12-13T14:43:38.843Z,1.90
2022-12-13T14:46:05.199Z,1.88
2022-12-13T14:48:31.534Z,1.90
2022-12-13T14:50:57.894Z,1.84
2022-12-13T14:53:24.608Z,1.76
2022-12-13T14:55:50.615Z,1.81
2022-12-13T14:58:16.953Z,1.84
2022-12-13T15:00:43.431Z,1.61
2022-12-13T15:03:09.673Z,1.47
2022-12-13T15:05:35.982Z,1.36
2022-12-13T15:08:10.921Z,1.29
2022-12-13T15:10:28.707Z,1.34
2022-12-13T15:12:55.040Z,1.51
2022-12-13T15:15:21.454Z,1.49
2022-12-13T15:17:47.828Z,1.56
2022-12-13T15:20:14.298Z,1.75
2022-12-13T15:22:40.616Z,1.83
2022-12-13T15:25:06.968Z,1.87
2022-12-13T15:27:33.341Z,1.78
2022-12-13T15:29:59.698Z,1.73
2022-12-13T15:32:26.077Z,1.67
2022-12-13T15:34:52.441Z,1.76
2022-12-13T15:37:28.624Z,1.74
2022-12-13T15:39:47.967Z,1.62
2022-12-13T15:42:11.448Z,1.64
2022-12-13T15:44:37.764Z,1.63
2022-12-13T15:47:04.186Z,1.66
2022-12-13T15:49:30.505Z,1.73
2022-12-13T15:51:56.852Z,1.72
2022-12-13T15:54:23.303Z,1.60
2022-12-13T15:56:49.641Z,1.69
2022-12-13T15:59:16.007Z,1.73
2022-12-13T16:01:42.401Z,1.76
2022-12-13T16:04:08.708Z,1.70
2022-12-13T16:06:35.102Z,1.66
2022-12-13T16:09:01.538Z,1.68
2022-12-13T16:11:27.859Z,1.61
2022-12-13T16:13:58.509Z,1.59
2022-12-13T16:16:26.669Z,1.56
2022-12-13T16:18:46.891Z,1.53
2022-12-13T16:21:13.300Z,1.60
2022-12-13T16:23:39.613Z,1.56
2022-12-13T16:26:09.207Z,1.63
2022-12-13T16:28:32.335Z,1.63
2022-12-13T16:30:58.733Z,1.71
2022-12-13T16:33:26.521Z,1.72
2022-12-13T16:35:51.418Z,1.67
2022-12-13T16:38:26.476Z,1.68
2022-12-13T16:40:44.098Z,1.60
2022-12-13T16:43:10.434Z,1.55
2022-12-13T16:45:43.803Z,1.50
2022-12-13T16:48:03.199Z,1.43
2022-12-13T16:50:29.526Z,1.39
2022-12-13T16:52:55.879Z,1.39
2022-12-13T16:55:22.276Z,1.35
2022-12-13T16:57:48.678Z,1.33
2022-12-13T17:00:15.063Z,1.26
2022-12-13T17:02:41.432Z,1.17
2022-12-13T17:05:07.804Z,1.11
2022-12-13T17:07:34.308Z,1.05
2022-12-13T17:10:00.602Z,0.95
2022-12-13T17:12:26.923Z,0.84
2022-12-13T17:14:53.305Z,0.75
2022-12-13T17:17:19.713Z,0.64
2022-12-13T17:19:46.046Z,0.46
2022-12-13T17:22:12.357Z,0.36
2022-12-13T17:24:38.738Z,0.34
2022-12-13T17:27:05.114Z,0.31
2022-12-13T17:29:31.503Z,0.32
2022-12-13T17:31:57.852Z,0.22
2022-12-13T17:34:24.243Z,0.24
2022-12-13T17:36:50.613Z,0.18
2022-12-13T17:39:17.001Z,0.17
2022-12-13T17:41:43.299Z,0.13
2022-12-13T17:44:09.722Z,0.18
2022-12-13T17:46:36.102Z,0.22
2022-12-13T17:49:02.409Z,0.22
2022-12-13T17:51:28.791Z,0.10
2022-12-13T17:53:55.125Z,0.10
2022-12-13T17:56:21.501Z,0.09
2022-12-13T17:58:47.845Z,0.04
2022-12-13T18:01:14.224Z,0.03
2022-12-13T18:03:40.525Z,0.08
2022-12-13T18:06:06.840Z,0.10
2022-12-13T18:08:33.198Z,0.08
2022-12-13T18:11:30.772Z,0.11
2022-12-13T18:13:26.306Z,0.13
2022-12-13T18:15:52.320Z,0.22
2022-12-13T18:18:18.649Z,0.10
2022-12-13T18:20:45.085Z,0.03
2022-12-13T18:23:11.381Z,0.03
2022-12-13T18:25:37.743Z,0.00
2022-12-13T18:28:04.084Z,0.03
2022-12-13T18:30:30.426Z,0.06
2022-12-13T18:32:57.393Z,0.09
2022-12-13T18:35:23.711Z,0.15
2022-12-13T18:37:50.094Z,0.20
2022-12-13T18:40:16.420Z,0.20
2022-12-13T18:42:44.511Z,0.19
2022-12-13T18:45:09.155Z,0.21
2022-12-13T18:47:35.549Z,0.13
2022-12-13T18:50:01.896Z,0.14
2022-12-13T18:52:28.306Z,0.17
2022-12-13T18:54:54.954Z,0.16
2022-12-13T18:57:21.004Z,0.17
2022-12-13T18:59:54.454Z,0.23
2022-12-13T19:02:13.714Z,0.20
2022-12-13T19:04:40.032Z,0.26
2022-12-13T19:07:06.462Z,0.29
2022-12-13T19:09:32.775Z,0.30
2022-12-13T19:11:59.110Z,0.34
2022-12-13T19:14:27.265Z,0.41
2022-12-13T19:16:51.839Z,0.43
2022-12-13T19:19:18.198Z,0.47
2022-12-13T19:21:44.543Z,0.45
2022-12-13T19:24:11.070Z,0.41
2022-12-13T19:26:37.257Z,0.40
2022-12-13T19:29:03.639Z,0.40
2022-12-13T19:31:32.272Z,0.46
2022-12-13T19:33:56.326Z,0.51
2022-12-13T19:36:22.662Z,0.57
2022-12-13T19:38:49.014Z,0.62
2022-12-13T19:41:15.375Z,0.67
2022-12-13T19:43:41.692Z,0.61
2022-12-13T19:46:08.131Z,0.61
2022-12-13T19:48:34.414Z,0.61
2022-12-13T19:51:00.750Z,0.57
2022-12-13T19:53:27.488Z,0.55
2022-12-13T19:55:53.447Z,0.55
2022-12-13T19:58:19.792Z,0.61
2022-12-13T20:00:46.188Z,0.75
2022-12-13T20:03:12.516Z,0.66
2022-12-13T20:05:43.935Z,0.79
2022-12-13T20:08:05.160Z,0.71
2022-12-13T20:10:31.538Z,0.71
2022-12-13T20:12:57.885Z,0.79
2022-12-13T20:15:24.259Z,0.81
2022-12-13T20:17:50.568Z,0.82
2022-12-13T20:20:16.964Z,0.83
2022-12-13T20:22:43.297Z,0.86
2022-12-13T20:25:09.627Z,0.90
2022-12-13T20:27:35.999Z,0.94
2022-12-13T20:30:02.378Z,0.95
2022-12-13T20:32:28.729Z,0.94
2022-12-13T20:34:55.315Z,0.97
2022-12-13T20:37:21.482Z,0.92
2022-12-13T20:39:47.831Z,0.95
2022-12-13T20:42:14.133Z,0.94
2022-12-13T20:44:40.501Z,1.00
2022-12-13T20:47:06.863Z,1.11
2022-12-13T20:49:33.150Z,1.21
2022-12-13T20:51:59.507Z,1.18
2022-12-13T20:54:25.966Z,1.13
2022-12-13T20:56:52.316Z,1.23
2022-12-13T20:59:18.690Z,1.28
2022-12-13T21:01:45.078Z,1.32
2022-12-13T21:04:11.392Z,1.27
2022-12-13T21:06:37.783Z,1.31
2022-12-13T21:09:04.196Z,1.32
2022-12-13T21:11:30.559Z,1.38
2022-12-13T21:13:57.659Z,1.38
2022-12-13T21:16:23.344Z,1.37
2022-12-13T21:18:49.646Z,1.39
2022-12-13T21:21:15.991Z,1.49
2022-12-13T21:23:42.328Z,1.57
2022-12-13T21:26:08.658Z,1.57
2022-12-13T21:28:35.047Z,1.55
2022-12-13T21:31:01.355Z,1.52
2022-12-13T21:33:28.006Z,1.53
2022-12-13T21:35:54.051Z,1.57
2022-12-13T21:38:20.397Z,1.55
2022-12-13T21:40:46.775Z,1.55
2022-12-13T21:43:13.144Z,1.53
2022-12-13T21:45:39.550Z,1.57
2022-12-13T21:48:05.847Z,1.78
2022-12-13T21:50:32.209Z,2.19
2022-12-13T21:52:58.553Z,2.57
2022-12-13T21:55:40.233Z,2.43
2022-12-13T21:57:51.255Z,2.08
2022-12-13T22:00:17.580Z,1.90
2022-12-13T22:02:43.962Z,1.81
2022-12-13T22:05:10.344Z,1.77
2022-12-13T22:07:36.724Z,1.76
2022-12-13T22:10:03.108Z,1.74
2022-12-13T22:12:29.448Z,1.79
2022-12-13T22:14:55.812Z,1.85
2022-12-13T22:17:22.185Z,1.97
2022-12-13T22:19:49.158Z,1.97
2022-12-13T22:22:14.901Z,1.97
2022-12-13T22:24:41.191Z,2.01
2022-12-13T22:27:07.570Z,2.05
2022-12-13T22:29:33.953Z,2.08
2022-12-13T22:32:00.296Z,2.07
2022-12-13T22:34:26.610Z,2.11
2022-12-13T22:36:52.947Z,2.08
2022-12-13T22:39:19.274Z,2.03
2022-12-13T22:41:45.652Z,2.00
2022-12-13T22:44:11.966Z,2.01
2022-12-13T22:46:38.340Z,2.02
2022-12-13T22:49:04.687Z,2.03
2022-12-13T22:51:31.024Z,2.02
2022-12-13T22:53:57.339Z,1.99
2022-12-13T22:56:23.686Z,1.98
2022-12-13T22:58:50.116Z,1.98
2022-12-13T23:01:16.640Z,1.98
2022-12-13T23:03:42.852Z,2.04
2022-12-13T23:06:09.241Z,2.03
2022-12-13T23:08:40.243Z,2.04
2022-12-13T23:11:01.895Z,2.07
2022-12-13T23:13:28.282Z,2.01
2022-12-13T23:15:54.704Z,1.97
2022-12-13T23:18:21.129Z,1.98
2022-12-13T23:20:48.539Z,1.93
2022-12-13T23:23:13.771Z,1.94
2022-12-13T23:25:42.720Z,1.99
2022-12-13T23:28:09.031Z,1.98
2022-12-13T23:30:35.466Z,1.97
2022-12-13T23:33:01.820Z,1.90
2022-12-13T23:35:28.314Z,1.90
2022-12-13T23:37:54.697Z,1.90
2022-12-13T23:40:21.082Z,1.90
2022-12-13T23:42:47.436Z,1.86
2022-12-13T23:45:13.769Z,1.80
2022-12-13T23:47:40.162Z,1.84
2022-12-13T23:50:06.550Z,1.89
2022-12-13T23:52:32.896Z,1.94
2022-12-13T23:54:59.248Z,1.97
2022-12-13T23:57:25.617Z,1.99
2022-12-13T23:59:51.944Z,1.95
